sensor_id;sensor_type;location;lat;lon;timestamp;P1;durP1;ratioP1;P2;durP2;ratioP2
45388;SDS011;31127;52.078;4.370;2022-07-21T00:02:16;21.40;;;18.20;;
45388;SDS011;31127;52.078;4.370;2022-07-21T00:07:11;19.27;;;15.93;;
45388;SDS011;31127;52.078;4.370;2022-07-21T00:12:06;21.53;;;18.23;;
45388;SDS011;31127;52.078;4.370;2022-07-21T00:17:02;21.20;;;17.83;;
45388;SDS011;31127;52.078;4.370;2022-07-21T00:21:57;20.02;;;16.52;;
45388;SDS011;31127;52.078;4.370;2022-07-21T00:26:53;19.85;;;17.65;;
45388;SDS011;31127;52.078;4.370;2022-07-21T00:31:48;24.10;;;18.70;;
45388;SDS011;31127;52.078;4.370;2022-07-21T00:53:11;23.88;;;20.85;;
45388;SDS011;31127;52.078;4.370;2022-07-21T00:58:06;26.27;;;19.70;;
45388;SDS011;31127;52.078;4.370;2022-07-21T01:03:02;25.90;;;19.53;;
45388;SDS011;31127;52.078;4.370;2022-07-21T01:07:57;26.50;;;21.38;;
45388;SDS011;31127;52.078;4.370;2022-07-21T01:12:58;23.60;;;20.90;;
45388;SDS011;31127;52.078;4.370;2022-07-21T01:17:53;24.77;;;20.55;;
45388;SDS011;31127;52.078;4.370;2022-07-21T01:22:50;22.05;;;19.52;;
45388;SDS011;31127;52.078;4.370;2022-07-21T01:27:46;22.65;;;19.27;;
45388;SDS011;31127;52.078;4.370;2022-07-21T01:32:41;23.48;;;20.70;;
45388;SDS011;31127;52.078;4.370;2022-07-21T01:37:38;24.63;;;22.00;;
45388;SDS011;31127;52.078;4.370;2022-07-21T01:42:33;26.55;;;21.92;;
45388;SDS011;31127;52.078;4.370;2022-07-21T01:47:29;25.27;;;21.73;;
45388;SDS011;31127;52.078;4.370;2022-07-21T01:52:24;25.27;;;21.57;;
45388;SDS011;31127;52.078;4.370;2022-07-21T01:57:19;26.53;;;22.27;;
45388;SDS011;31127;52.078;4.370;2022-07-21T02:02:15;28.43;;;23.37;;
45388;SDS011;31127;52.078;4.370;2022-07-21T02:07:16;30.75;;;22.85;;
45388;SDS011;31127;52.078;4.370;2022-07-21T02:12:11;30.67;;;23.42;;
45388;SDS011;31127;52.078;4.370;2022-07-21T02:17:07;29.58;;;24.10;;
45388;SDS011;31127;52.078;4.370;2022-07-21T02:22:02;29.10;;;24.35;;
45388;SDS011;31127;52.078;4.370;2022-07-21T02:26:57;26.07;;;23.20;;
45388;SDS011;31127;52.078;4.370;2022-07-21T02:31:53;30.63;;;26.02;;
45388;SDS011;31127;52.078;4.370;2022-07-21T02:41:57;32.97;;;27.42;;
45388;SDS011;31127;52.078;4.370;2022-07-21T02:46:52;30.40;;;26.23;;
45388;SDS011;31127;52.078;4.370;2022-07-21T02:51:48;30.33;;;25.95;;
45388;SDS011;31127;52.078;4.370;2022-07-21T02:56:43;32.80;;;27.00;;
45388;SDS011;31127;52.078;4.370;2022-07-21T03:01:38;34.23;;;27.40;;
45388;SDS011;31127;52.078;4.370;2022-07-21T03:06:34;32.00;;;25.63;;
45388;SDS011;31127;52.078;4.370;2022-07-21T03:11:29;31.07;;;26.03;;
45388;SDS011;31127;52.078;4.370;2022-07-21T03:16:24;31.70;;;26.02;;
45388;SDS011;31127;52.078;4.370;2022-07-21T03:21:20;33.15;;;24.65;;
45388;SDS011;31127;52.078;4.370;2022-07-21T03:26:16;35.15;;;26.45;;
45388;SDS011;31127;52.078;4.370;2022-07-21T03:31:11;33.95;;;28.60;;
45388;SDS011;31127;52.078;4.370;2022-07-21T03:36:07;34.75;;;27.80;;
45388;SDS011;31127;52.078;4.370;2022-07-21T03:41:02;34.30;;;28.30;;
45388;SDS011;31127;52.078;4.370;2022-07-21T03:45:57;36.15;;;27.63;;
45388;SDS011;31127;52.078;4.370;2022-07-21T03:50:53;35.72;;;26.20;;
45388;SDS011;31127;52.078;4.370;2022-07-21T03:55:48;39.30;;;26.30;;
45388;SDS011;31127;52.078;4.370;2022-07-21T04:00:44;33.50;;;25.02;;
45388;SDS011;31127;52.078;4.370;2022-07-21T04:05:40;39.00;;;27.08;;
45388;SDS011;31127;52.078;4.370;2022-07-21T04:10:37;36.05;;;26.88;;
45388;SDS011;31127;52.078;4.370;2022-07-21T04:15:33;47.78;;;27.65;;
45388;SDS011;31127;52.078;4.370;2022-07-21T04:20:28;58.40;;;27.65;;
45388;SDS011;31127;52.078;4.370;2022-07-21T04:25:24;59.72;;;27.77;;
45388;SDS011;31127;52.078;4.370;2022-07-21T04:30:20;59.07;;;30.77;;
45388;SDS011;31127;52.078;4.370;2022-07-21T04:35:16;56.78;;;29.55;;
45388;SDS011;31127;52.078;4.370;2022-07-21T04:40:11;55.13;;;28.20;;
45388;SDS011;31127;52.078;4.370;2022-07-21T04:45:08;53.75;;;29.95;;
45388;SDS011;31127;52.078;4.370;2022-07-21T04:50:04;51.88;;;27.05;;
45388;SDS011;31127;52.078;4.370;2022-07-21T04:54:59;41.00;;;23.65;;
45388;SDS011;31127;52.078;4.370;2022-07-21T04:59:54;44.53;;;24.42;;
45388;SDS011;31127;52.078;4.370;2022-07-21T05:04:49;44.70;;;25.67;;
45388;SDS011;31127;52.078;4.370;2022-07-21T05:09:45;43.30;;;22.77;;
45388;SDS011;31127;52.078;4.370;2022-07-21T05:14:40;44.77;;;23.00;;
45388;SDS011;31127;52.078;4.370;2022-07-21T05:19:35;47.25;;;23.05;;
45388;SDS011;31127;52.078;4.370;2022-07-21T05:24:31;41.97;;;24.45;;
45388;SDS011;31127;52.078;4.370;2022-07-21T05:29:26;40.35;;;23.45;;
45388;SDS011;31127;52.078;4.370;2022-07-21T05:34:21;47.87;;;25.07;;
45388;SDS011;31127;52.078;4.370;2022-07-21T05:39:17;42.83;;;25.60;;
45388;SDS011;31127;52.078;4.370;2022-07-21T05:44:12;48.80;;;26.70;;
45388;SDS011;31127;52.078;4.370;2022-07-21T05:49:07;46.87;;;24.83;;
45388;SDS011;31127;52.078;4.370;2022-07-21T05:54:03;42.40;;;24.73;;
45388;SDS011;31127;52.078;4.370;2022-07-21T05:58:58;41.30;;;22.17;;
45388;SDS011;31127;52.078;4.370;2022-07-21T06:03:53;37.47;;;21.60;;
45388;SDS011;31127;52.078;4.370;2022-07-21T06:08:49;31.40;;;19.33;;
45388;SDS011;31127;52.078;4.370;2022-07-21T06:13:45;27.30;;;18.35;;
45388;SDS011;31127;52.078;4.370;2022-07-21T06:18:40;32.33;;;17.80;;
45388;SDS011;31127;52.078;4.370;2022-07-21T06:23:36;25.10;;;15.50;;
45388;SDS011;31127;52.078;4.370;2022-07-21T06:28:31;20.25;;;16.10;;
45388;SDS011;31127;52.078;4.370;2022-07-21T06:33:26;22.85;;;14.57;;
45388;SDS011;31127;52.078;4.370;2022-07-21T06:38:22;18.05;;;12.65;;
45388;SDS011;31127;52.078;4.370;2022-07-21T06:43:17;21.15;;;14.25;;
45388;SDS011;31127;52.078;4.370;2022-07-21T06:53:35;23.70;;;17.38;;
45388;SDS011;31127;52.078;4.370;2022-07-21T06:58:30;23.65;;;17.40;;
45388;SDS011;31127;52.078;4.370;2022-07-21T07:03:27;29.20;;;18.58;;
45388;SDS011;31127;52.078;4.370;2022-07-21T07:08:23;37.60;;;19.80;;
45388;SDS011;31127;52.078;4.370;2022-07-21T07:13:18;27.20;;;15.93;;
45388;SDS011;31127;52.078;4.370;2022-07-21T07:18:13;33.93;;;16.00;;
45388;SDS011;31127;52.078;4.370;2022-07-21T07:23:09;33.67;;;17.63;;
45388;SDS011;31127;52.078;4.370;2022-07-21T07:28:04;37.80;;;19.70;;
45388;SDS011;31127;52.078;4.370;2022-07-21T07:33:00;35.30;;;20.65;;
45388;SDS011;31127;52.078;4.370;2022-07-21T07:37:55;40.72;;;22.23;;
45388;SDS011;31127;52.078;4.370;2022-07-21T07:42:51;34.37;;;20.33;;
45388;SDS011;31127;52.078;4.370;2022-07-21T07:47:46;32.13;;;19.00;;
45388;SDS011;31127;52.078;4.370;2022-07-21T07:52:42;33.53;;;18.30;;
45388;SDS011;31127;52.078;4.370;2022-07-21T07:57:38;22.65;;;15.25;;
45388;SDS011;31127;52.078;4.370;2022-07-21T08:02:33;29.05;;;17.60;;
45388;SDS011;31127;52.078;4.370;2022-07-21T08:07:29;30.50;;;15.37;;
45388;SDS011;31127;52.078;4.370;2022-07-21T08:12:24;33.00;;;17.15;;
45388;SDS011;31127;52.078;4.370;2022-07-21T08:17:20;31.52;;;16.75;;
45388;SDS011;31127;52.078;4.370;2022-07-21T08:22:15;26.90;;;14.60;;
45388;SDS011;31127;52.078;4.370;2022-07-21T08:27:11;23.43;;;12.80;;
45388;SDS011;31127;52.078;4.370;2022-07-21T08:32:06;23.73;;;12.48;;
45388;SDS011;31127;52.078;4.370;2022-07-21T08:37:01;20.57;;;11.70;;
45388;SDS011;31127;52.078;4.370;2022-07-21T08:41:57;15.73;;;11.23;;
45388;SDS011;31127;52.078;4.370;2022-07-21T08:46:52;15.85;;;10.45;;
45388;SDS011;31127;52.078;4.370;2022-07-21T08:51:49;14.27;;;8.55;;
45388;SDS011;31127;52.078;4.370;2022-07-21T08:56:47;14.90;;;8.52;;
45388;SDS011;31127;52.078;4.370;2022-07-21T09:01:42;14.95;;;7.32;;
45388;SDS011;31127;52.078;4.370;2022-07-21T09:06:56;7.22;;;5.55;;
45388;SDS011;31127;52.078;4.370;2022-07-21T09:11:52;5.47;;;4.43;;
45388;SDS011;31127;52.078;4.370;2022-07-21T09:16:49;4.70;;;3.63;;
45388;SDS011;31127;52.078;4.370;2022-07-21T09:21:45;7.25;;;3.70;;
45388;SDS011;31127;52.078;4.370;2022-07-21T09:31:55;10.05;;;4.45;;
45388;SDS011;31127;52.078;4.370;2022-07-21T09:36:59;7.05;;;4.78;;
45388;SDS011;31127;52.078;4.370;2022-07-21T09:41:54;8.70;;;4.63;;
45388;SDS011;31127;52.078;4.370;2022-07-21T09:47:09;7.97;;;5.45;;
45388;SDS011;31127;52.078;4.370;2022-07-21T09:52:28;7.75;;;5.30;;
45388;SDS011;31127;52.078;4.370;2022-07-21T09:57:21;9.15;;;5.28;;
45388;SDS011;31127;52.078;4.370;2022-07-21T10:02:21;10.63;;;4.57;;
45388;SDS011;31127;52.078;4.370;2022-07-21T10:07:17;7.88;;;4.43;;
45388;SDS011;31127;52.078;4.370;2022-07-21T10:12:14;4.35;;;2.60;;
45388;SDS011;31127;52.078;4.370;2022-07-21T10:17:09;8.68;;;3.15;;
45388;SDS011;31127;52.078;4.370;2022-07-21T10:22:09;13.00;;;3.42;;
45388;SDS011;31127;52.078;4.370;2022-07-21T10:27:08;6.88;;;2.72;;
45388;SDS011;31127;52.078;4.370;2022-07-21T10:32:10;6.35;;;2.25;;
45388;SDS011;31127;52.078;4.370;2022-07-21T10:37:06;5.15;;;1.88;;
45388;SDS011;31127;52.078;4.370;2022-07-21T10:42:13;5.50;;;2.07;;
45388;SDS011;31127;52.078;4.370;2022-07-21T10:52:04;6.40;;;2.20;;
45388;SDS011;31127;52.078;4.370;2022-07-21T11:02:31;6.88;;;2.65;;
45388;SDS011;31127;52.078;4.370;2022-07-21T11:07:55;13.30;;;2.92;;
45388;SDS011;31127;52.078;4.370;2022-07-21T11:12:54;8.35;;;3.78;;
45388;SDS011;31127;52.078;4.370;2022-07-21T11:17:49;13.27;;;3.53;;
45388;SDS011;31127;52.078;4.370;2022-07-21T11:22:52;10.35;;;3.42;;
45388;SDS011;31127;52.078;4.370;2022-07-21T11:27:47;15.63;;;3.47;;
45388;SDS011;31127;52.078;4.370;2022-07-21T11:32:46;7.93;;;2.50;;
45388;SDS011;31127;52.078;4.370;2022-07-21T11:37:43;7.80;;;2.33;;
45388;SDS011;31127;52.078;4.370;2022-07-21T11:42:38;11.63;;;2.75;;
45388;SDS011;31127;52.078;4.370;2022-07-21T11:47:34;11.10;;;3.27;;
45388;SDS011;31127;52.078;4.370;2022-07-21T11:52:30;10.02;;;2.63;;
45388;SDS011;31127;52.078;4.370;2022-07-21T11:57:26;20.15;;;6.30;;
45388;SDS011;31127;52.078;4.370;2022-07-21T12:02:23;11.55;;;2.75;;
45388;SDS011;31127;52.078;4.370;2022-07-21T12:07:20;12.25;;;3.15;;
45388;SDS011;31127;52.078;4.370;2022-07-21T12:12:27;7.32;;;2.35;;
45388;SDS011;31127;52.078;4.370;2022-07-21T12:17:35;10.02;;;2.45;;
45388;SDS011;31127;52.078;4.370;2022-07-21T12:22:35;9.80;;;1.98;;
45388;SDS011;31127;52.078;4.370;2022-07-21T12:27:31;8.98;;;2.05;;
45388;SDS011;31127;52.078;4.370;2022-07-21T12:32:40;13.95;;;3.40;;
45388;SDS011;31127;52.078;4.370;2022-07-21T12:37:55;9.05;;;2.10;;
45388;SDS011;31127;52.078;4.370;2022-07-21T12:42:51;13.30;;;2.50;;
45388;SDS011;31127;52.078;4.370;2022-07-21T12:48:09;16.30;;;2.60;;
45388;SDS011;31127;52.078;4.370;2022-07-21T12:53:05;9.77;;;2.45;;
45388;SDS011;31127;52.078;4.370;2022-07-21T12:58:02;12.45;;;2.97;;
45388;SDS011;31127;52.078;4.370;2022-07-21T13:02:58;19.45;;;3.65;;
45388;SDS011;31127;52.078;4.370;2022-07-21T13:07:53;15.52;;;3.92;;
45388;SDS011;31127;52.078;4.370;2022-07-21T13:12:49;18.70;;;3.90;;
45388;SDS011;31127;52.078;4.370;2022-07-21T13:17:44;18.73;;;4.63;;
45388;SDS011;31127;52.078;4.370;2022-07-21T13:22:40;22.20;;;4.15;;
45388;SDS011;31127;52.078;4.370;2022-07-21T13:27:35;28.00;;;4.43;;
45388;SDS011;31127;52.078;4.370;2022-07-21T13:32:32;15.77;;;3.90;;
45388;SDS011;31127;52.078;4.370;2022-07-21T13:37:28;17.13;;;4.03;;
45388;SDS011;31127;52.078;4.370;2022-07-21T13:42:23;21.50;;;4.40;;
45388;SDS011;31127;52.078;4.370;2022-07-21T13:47:18;18.43;;;3.73;;
45388;SDS011;31127;52.078;4.370;2022-07-21T13:52:14;20.20;;;4.47;;
45388;SDS011;31127;52.078;4.370;2022-07-21T13:57:09;21.50;;;3.90;;
45388;SDS011;31127;52.078;4.370;2022-07-21T14:02:04;20.90;;;4.27;;
45388;SDS011;31127;52.078;4.370;2022-07-21T14:07:00;19.48;;;4.07;;
45388;SDS011;31127;52.078;4.370;2022-07-21T14:11:55;18.83;;;3.70;;
45388;SDS011;31127;52.078;4.370;2022-07-21T14:22:00;18.48;;;3.85;;
45388;SDS011;31127;52.078;4.370;2022-07-21T14:26:56;13.43;;;4.03;;
45388;SDS011;31127;52.078;4.370;2022-07-21T14:31:51;18.40;;;3.73;;
45388;SDS011;31127;52.078;4.370;2022-07-21T14:36:47;19.47;;;4.23;;
45388;SDS011;31127;52.078;4.370;2022-07-21T14:41:42;17.93;;;3.23;;
45388;SDS011;31127;52.078;4.370;2022-07-21T14:46:37;24.67;;;4.30;;
45388;SDS011;31127;52.078;4.370;2022-07-21T14:51:33;16.90;;;3.63;;
45388;SDS011;31127;52.078;4.370;2022-07-21T14:56:28;16.50;;;3.22;;
45388;SDS011;31127;52.078;4.370;2022-07-21T15:01:24;16.13;;;3.80;;
45388;SDS011;31127;52.078;4.370;2022-07-21T15:06:20;11.50;;;3.03;;
45388;SDS011;31127;52.078;4.370;2022-07-21T15:11:15;11.93;;;3.40;;
45388;SDS011;31127;52.078;4.370;2022-07-21T15:16:12;10.90;;;3.08;;
45388;SDS011;31127;52.078;4.370;2022-07-21T15:21:08;18.90;;;3.63;;
45388;SDS011;31127;52.078;4.370;2022-07-21T15:26:03;13.77;;;3.50;;
45388;SDS011;31127;52.078;4.370;2022-07-21T15:30:58;15.07;;;3.47;;
45388;SDS011;31127;52.078;4.370;2022-07-21T15:35:54;12.15;;;2.55;;
45388;SDS011;31127;52.078;4.370;2022-07-21T15:40:49;14.57;;;3.00;;
45388;SDS011;31127;52.078;4.370;2022-07-21T15:45:45;15.57;;;3.72;;
45388;SDS011;31127;52.078;4.370;2022-07-21T15:50:41;18.55;;;3.80;;
45388;SDS011;31127;52.078;4.370;2022-07-21T15:55:36;12.27;;;3.10;;
45388;SDS011;31127;52.078;4.370;2022-07-21T16:00:32;13.02;;;2.78;;
45388;SDS011;31127;52.078;4.370;2022-07-21T16:05:27;9.25;;;2.85;;
45388;SDS011;31127;52.078;4.370;2022-07-21T16:10:23;11.27;;;2.63;;
45388;SDS011;31127;52.078;4.370;2022-07-21T16:15:19;14.52;;;3.10;;
45388;SDS011;31127;52.078;4.370;2022-07-21T16:20:15;17.33;;;3.55;;
45388;SDS011;31127;52.078;4.370;2022-07-21T16:25:11;13.07;;;3.50;;
45388;SDS011;31127;52.078;4.370;2022-07-21T16:30:07;12.35;;;2.70;;
45388;SDS011;31127;52.078;4.370;2022-07-21T16:35:03;16.38;;;3.53;;
45388;SDS011;31127;52.078;4.370;2022-07-21T16:45:07;14.00;;;3.72;;
45388;SDS011;31127;52.078;4.370;2022-07-21T16:50:02;9.60;;;2.85;;
45388;SDS011;31127;52.078;4.370;2022-07-21T16:54:58;17.92;;;3.30;;
45388;SDS011;31127;52.078;4.370;2022-07-21T16:59:54;19.92;;;3.75;;
45388;SDS011;31127;52.078;4.370;2022-07-21T17:04:49;14.13;;;3.90;;
45388;SDS011;31127;52.078;4.370;2022-07-21T17:09:44;23.17;;;4.65;;
45388;SDS011;31127;52.078;4.370;2022-07-21T17:14:42;14.02;;;3.67;;
45388;SDS011;31127;52.078;4.370;2022-07-21T17:19:38;17.98;;;4.50;;
45388;SDS011;31127;52.078;4.370;2022-07-21T17:24:33;19.98;;;3.72;;
45388;SDS011;31127;52.078;4.370;2022-07-21T17:29:28;18.00;;;3.97;;
45388;SDS011;31127;52.078;4.370;2022-07-21T17:34:24;14.70;;;3.77;;
45388;SDS011;31127;52.078;4.370;2022-07-21T17:39:19;16.60;;;3.90;;
45388;SDS011;31127;52.078;4.370;2022-07-21T17:44:15;15.80;;;3.60;;
45388;SDS011;31127;52.078;4.370;2022-07-21T17:54:06;11.90;;;4.07;;
45388;SDS011;31127;52.078;4.370;2022-07-21T17:59:02;15.43;;;3.90;;
45388;SDS011;31127;52.078;4.370;2022-07-21T18:03:57;14.43;;;3.65;;
45388;SDS011;31127;52.078;4.370;2022-07-21T18:08:53;16.58;;;4.60;;
45388;SDS011;31127;52.078;4.370;2022-07-21T18:13:48;16.20;;;4.25;;
45388;SDS011;31127;52.078;4.370;2022-07-21T18:23:52;16.55;;;3.70;;
45388;SDS011;31127;52.078;4.370;2022-07-21T18:28:48;17.63;;;3.80;;
45388;SDS011;31127;52.078;4.370;2022-07-21T18:33:44;15.63;;;4.32;;
45388;SDS011;31127;52.078;4.370;2022-07-21T18:38:39;12.63;;;3.77;;
45388;SDS011;31127;52.078;4.370;2022-07-21T18:43:34;18.47;;;3.70;;
45388;SDS011;31127;52.078;4.370;2022-07-21T18:48:30;10.13;;;2.83;;
45388;SDS011;31127;52.078;4.370;2022-07-21T18:53:25;11.10;;;3.50;;
45388;SDS011;31127;52.078;4.370;2022-07-21T18:58:20;13.30;;;3.38;;
45388;SDS011;31127;52.078;4.370;2022-07-21T19:08:25;14.68;;;3.78;;
45388;SDS011;31127;52.078;4.370;2022-07-21T19:13:20;16.15;;;3.50;;
45388;SDS011;31127;52.078;4.370;2022-07-21T19:18:16;21.17;;;7.78;;
45388;SDS011;31127;52.078;4.370;2022-07-21T19:33:28;15.60;;;3.15;;
45388;SDS011;31127;52.078;4.370;2022-07-21T19:38:24;18.83;;;3.30;;
45388;SDS011;31127;52.078;4.370;2022-07-21T19:43:19;16.13;;;3.50;;
45388;SDS011;31127;52.078;4.370;2022-07-21T19:48:15;14.13;;;3.03;;
45388;SDS011;31127;52.078;4.370;2022-07-21T19:53:10;9.13;;;2.60;;
45388;SDS011;31127;52.078;4.370;2022-07-21T19:58:05;13.35;;;3.38;;
45388;SDS011;31127;52.078;4.370;2022-07-21T20:03:01;22.95;;;10.25;;
45388;SDS011;31127;52.078;4.370;2022-07-21T20:07:57;25.38;;;12.93;;
45388;SDS011;31127;52.078;4.370;2022-07-21T20:12:52;8.47;;;3.30;;
45388;SDS011;31127;52.078;4.370;2022-07-21T20:17:48;11.53;;;3.73;;
45388;SDS011;31127;52.078;4.370;2022-07-21T20:27:51;12.35;;;3.55;;
45388;SDS011;31127;52.078;4.370;2022-07-21T20:32:47;22.17;;;9.53;;
45388;SDS011;31127;52.078;4.370;2022-07-21T20:37:45;13.32;;;3.20;;
45388;SDS011;31127;52.078;4.370;2022-07-21T20:42:41;10.95;;;3.53;;
45388;SDS011;31127;52.078;4.370;2022-07-21T20:47:39;13.73;;;3.20;;
45388;SDS011;31127;52.078;4.370;2022-07-21T20:53:06;14.68;;;3.42;;
45388;SDS011;31127;52.078;4.370;2022-07-21T20:58:02;12.07;;;2.75;;
45388;SDS011;31127;52.078;4.370;2022-07-21T21:02:57;12.65;;;3.55;;
45388;SDS011;31127;52.078;4.370;2022-07-21T21:07:53;7.90;;;2.80;;
45388;SDS011;31127;52.078;4.370;2022-07-21T21:12:49;8.30;;;3.40;;
45388;SDS011;31127;52.078;4.370;2022-07-21T21:17:45;15.93;;;3.27;;
45388;SDS011;31127;52.078;4.370;2022-07-21T21:22:40;13.10;;;6.55;;
45388;SDS011;31127;52.078;4.370;2022-07-21T21:27:36;55.47;;;31.83;;
45388;SDS011;31127;52.078;4.370;2022-07-21T21:32:31;12.55;;;3.08;;
45388;SDS011;31127;52.078;4.370;2022-07-21T21:37:26;11.27;;;3.33;;
45388;SDS011;31127;52.078;4.370;2022-07-21T21:42:22;8.45;;;2.20;;
45388;SDS011;31127;52.078;4.370;2022-07-21T21:47:17;14.93;;;2.97;;
45388;SDS011;31127;52.078;4.370;2022-07-21T21:52:13;16.88;;;3.33;;
45388;SDS011;31127;52.078;4.370;2022-07-21T21:57:08;7.00;;;2.30;;
45388;SDS011;31127;52.078;4.370;2022-07-21T22:02:04;12.70;;;2.57;;
45388;SDS011;31127;52.078;4.370;2022-07-21T22:06:59;8.90;;;2.40;;
45388;SDS011;31127;52.078;4.370;2022-07-21T22:11:54;9.57;;;2.20;;
45388;SDS011;31127;52.078;4.370;2022-07-21T22:16:50;13.77;;;3.05;;
45388;SDS011;31127;52.078;4.370;2022-07-21T22:21:45;9.10;;;2.25;;
45388;SDS011;31127;52.078;4.370;2022-07-21T22:26:41;9.20;;;2.90;;
45388;SDS011;31127;52.078;4.370;2022-07-21T22:31:36;7.85;;;1.95;;
45388;SDS011;31127;52.078;4.370;2022-07-21T22:36:31;8.80;;;2.07;;
45388;SDS011;31127;52.078;4.370;2022-07-21T22:41:27;10.85;;;2.50;;
45388;SDS011;31127;52.078;4.370;2022-07-21T22:46:22;10.63;;;2.83;;
45388;SDS011;31127;52.078;4.370;2022-07-21T22:51:18;8.50;;;2.57;;
45388;SDS011;31127;52.078;4.370;2022-07-21T22:56:13;15.77;;;3.57;;
45388;SDS011;31127;52.078;4.370;2022-07-21T23:01:09;14.50;;;3.00;;
45388;SDS011;31127;52.078;4.370;2022-07-21T23:06:04;13.32;;;2.50;;
45388;SDS011;31127;52.078;4.370;2022-07-21T23:10:59;11.37;;;3.10;;
45388;SDS011;31127;52.078;4.370;2022-07-21T23:15:55;12.63;;;2.93;;
45388;SDS011;31127;52.078;4.370;2022-07-21T23:20:50;12.20;;;3.30;;
45388;SDS011;31127;52.078;4.370;2022-07-21T23:25:45;13.38;;;2.95;;
45388;SDS011;31127;52.078;4.370;2022-07-21T23:30:41;8.10;;;2.57;;
45388;SDS011;31127;52.078;4.370;2022-07-21T23:35:36;10.43;;;2.80;;
45388;SDS011;31127;52.078;4.370;2022-07-21T23:40:33;14.20;;;2.97;;
45388;SDS011;31127;52.078;4.370;2022-07-21T23:50:37;7.85;;;2.50;;
45388;SDS011;31127;52.078;4.370;2022-07-21T23:55:32;8.97;;;2.33;;
